<?xml version="1.0" encoding="UTF-8" standalone="no" ?>
<gpx xmlns="http://www.topografix.com/GPX/1/1" xmlns:xsi="http://www.w3.org/2001/XMLSchema-instance" xsi:schemaLocation="http://www.topografix.com/GPX/1/1 http://www.topografix.com/GPX/1/1/gpx.xsd" version="1.1" creator="VisuGPX - https://www.visugpx.com">
  <metadata>
    <name>Plateau du Coscione 29/02</name>
    <desc><![CDATA[
]]></desc>
  </metadata>
  <trk>
    <name><![CDATA[Randonnée du 29/02/2020 à 10:07]]></name>
    <trkseg>
      <trkpt lat="41.82325" lon="9.14158">
        <ele>1528.4</ele>
        <time>2020-02-29T10:07:38 01:00</time>
      </trkpt>
      <trkpt lat="41.82325" lon="9.14158">
        <ele>1580</ele>
        <time>2020-02-29T10:07:38 01:00</time>
      </trkpt>
      <trkpt lat="41.82368" lon="9.14215">
        <ele>1572</ele>
        <time>2020-02-29T10:13:41 01:00</time>
      </trkpt>
      <trkpt lat="41.8238" lon="9.14243">
        <ele>1575</ele>
        <time>2020-02-29T10:14:20 01:00</time>
      </trkpt>
      <trkpt lat="41.82388" lon="9.14271">
        <ele>1573</ele>
        <time>2020-02-29T10:14:50 01:00</time>
      </trkpt>
      <trkpt lat="41.83669" lon="9.15051">
        <ele>1626</ele>
        <time>2020-02-29T10:54:39 01:00</time>
      </trkpt>
      <trkpt lat="41.84398" lon="9.16115">
        <ele>1650</ele>
        <time>2020-02-29T12:08:58 01:00</time>
      </trkpt>
      <trkpt lat="41.84382" lon="9.16094">
        <ele>1643</ele>
        <time>2020-02-29T12:10:47 01:00</time>
      </trkpt>
      <trkpt lat="41.84301" lon="9.16069">
        <ele>1651</ele>
        <time>2020-02-29T12:13:21 01:00</time>
      </trkpt>
      <trkpt lat="41.8431" lon="9.1604">
        <ele>1643</ele>
        <time>2020-02-29T12:14:07 01:00</time>
      </trkpt>
      <trkpt lat="41.84309" lon="9.16009">
        <ele>1646</ele>
        <time>2020-02-29T12:14:57 01:00</time>
      </trkpt>
      <trkpt lat="41.84299" lon="9.15926">
        <ele>1664</ele>
        <time>2020-02-29T12:16:47 01:00</time>
      </trkpt>
      <trkpt lat="41.8428" lon="9.15945">
        <ele>1655</ele>
        <time>2020-02-29T12:18:48 01:00</time>
      </trkpt>
      <trkpt lat="41.84222" lon="9.15967">
        <ele>1626</ele>
        <time>2020-02-29T12:20:03 01:00</time>
      </trkpt>
      <trkpt lat="41.84212" lon="9.15994">
        <ele>1657</ele>
        <time>2020-02-29T12:20:44 01:00</time>
      </trkpt>
      <trkpt lat="41.84103" lon="9.16155">
        <ele>904</ele>
        <time>2020-02-29T12:21:58 01:00</time>
      </trkpt>
      <trkpt lat="41.84074" lon="9.16166">
        <ele>927</ele>
        <time>2020-02-29T12:21:59 01:00</time>
      </trkpt>
      <trkpt lat="41.84044" lon="9.16183">
        <ele>966</ele>
        <time>2020-02-29T12:22:00 01:00</time>
      </trkpt>
      <trkpt lat="41.84018" lon="9.16203">
        <ele>1008</ele>
        <time>2020-02-29T12:22:02 01:00</time>
      </trkpt>
      <trkpt lat="41.84036" lon="9.16169">
        <ele>1134</ele>
        <time>2020-02-29T12:22:10 01:00</time>
      </trkpt>
      <trkpt lat="41.84054" lon="9.16148">
        <ele>1170</ele>
        <time>2020-02-29T12:22:16 01:00</time>
      </trkpt>
      <trkpt lat="41.84083" lon="9.16125">
        <ele>1276</ele>
        <time>2020-02-29T12:22:20 01:00</time>
      </trkpt>
      <trkpt lat="41.84105" lon="9.16107">
        <ele>1363</ele>
        <time>2020-02-29T12:22:22 01:00</time>
      </trkpt>
      <trkpt lat="41.84126" lon="9.1609">
        <ele>1464</ele>
        <time>2020-02-29T12:22:25 01:00</time>
      </trkpt>
      <trkpt lat="41.84145" lon="9.16075">
        <ele>1575</ele>
        <time>2020-02-29T12:22:38 01:00</time>
      </trkpt>
      <trkpt lat="41.84105" lon="9.16133">
        <ele>1659</ele>
        <time>2020-02-29T12:27:47 01:00</time>
      </trkpt>
      <trkpt lat="41.8406" lon="9.16164">
        <ele>1655</ele>
        <time>2020-02-29T12:31:07 01:00</time>
      </trkpt>
      <trkpt lat="41.83783" lon="9.16226">
        <ele>1626</ele>
        <time>2020-02-29T12:51:43 01:00</time>
      </trkpt>
      <trkpt lat="41.83785" lon="9.16286">
        <ele>1632</ele>
        <time>2020-02-29T13:01:31 01:00</time>
      </trkpt>
      <trkpt lat="41.83798" lon="9.1631">
        <ele>1626</ele>
        <time>2020-02-29T13:01:54 01:00</time>
      </trkpt>
      <trkpt lat="41.83801" lon="9.16341">
        <ele>1627</ele>
        <time>2020-02-29T13:02:14 01:00</time>
      </trkpt>
      <trkpt lat="41.83807" lon="9.16371">
        <ele>1627</ele>
        <time>2020-02-29T13:02:32 01:00</time>
      </trkpt>
      <trkpt lat="41.83808" lon="9.16402">
        <ele>1627</ele>
        <time>2020-02-29T13:02:50 01:00</time>
      </trkpt>
      <trkpt lat="41.83799" lon="9.16429">
        <ele>1627</ele>
        <time>2020-02-29T13:03:07 01:00</time>
      </trkpt>
      <trkpt lat="41.83786" lon="9.16455">
        <ele>1627</ele>
        <time>2020-02-29T13:03:26 01:00</time>
      </trkpt>
      <trkpt lat="41.83798" lon="9.16482">
        <ele>1630</ele>
        <time>2020-02-29T13:03:51 01:00</time>
      </trkpt>
      <trkpt lat="41.83819" lon="9.16495">
        <ele>1631</ele>
        <time>2020-02-29T13:04:10 01:00</time>
      </trkpt>
      <trkpt lat="41.83832" lon="9.16519">
        <ele>1631</ele>
        <time>2020-02-29T13:04:30 01:00</time>
      </trkpt>
      <trkpt lat="41.83843" lon="9.16546">
        <ele>1634</ele>
        <time>2020-02-29T13:05:02 01:00</time>
      </trkpt>
      <trkpt lat="41.83866" lon="9.16645">
        <ele>1626</ele>
        <time>2020-02-29T13:06:10 01:00</time>
      </trkpt>
      <trkpt lat="41.83862" lon="9.16675">
        <ele>1636</ele>
        <time>2020-02-29T13:06:23 01:00</time>
      </trkpt>
      <trkpt lat="41.83854" lon="9.16703">
        <ele>1636</ele>
        <time>2020-02-29T13:06:42 01:00</time>
      </trkpt>
      <trkpt lat="41.83851" lon="9.16734">
        <ele>1635</ele>
        <time>2020-02-29T13:07:00 01:00</time>
      </trkpt>
      <trkpt lat="41.83808" lon="9.16935">
        <ele>1642</ele>
        <time>2020-02-29T13:10:40 01:00</time>
      </trkpt>
      <trkpt lat="41.83792" lon="9.16957">
        <ele>1649</ele>
        <time>2020-02-29T13:11:01 01:00</time>
      </trkpt>
      <trkpt lat="41.83655" lon="9.17138">
        <ele>1646</ele>
        <time>2020-02-29T13:14:08 01:00</time>
      </trkpt>
      <trkpt lat="41.83639" lon="9.17117">
        <ele>1641</ele>
        <time>2020-02-29T13:14:48 01:00</time>
      </trkpt>
      <trkpt lat="41.83653" lon="9.17142">
        <ele>1642</ele>
        <time>2020-02-29T13:15:15 01:00</time>
      </trkpt>
      <trkpt lat="41.83666" lon="9.17167">
        <ele>1644</ele>
        <time>2020-02-29T13:15:55 01:00</time>
      </trkpt>
      <trkpt lat="41.83671" lon="9.17197">
        <ele>1646</ele>
        <time>2020-02-29T13:16:17 01:00</time>
      </trkpt>
      <trkpt lat="41.83673" lon="9.17228">
        <ele>1648</ele>
        <time>2020-02-29T13:17:10 01:00</time>
      </trkpt>
      <trkpt lat="41.83675" lon="9.17258">
        <ele>1650</ele>
        <time>2020-02-29T13:17:33 01:00</time>
      </trkpt>
      <trkpt lat="41.83671" lon="9.17228">
        <ele>1651</ele>
        <time>2020-02-29T13:18:25 01:00</time>
      </trkpt>
      <trkpt lat="41.83536" lon="9.17236">
        <ele>1645</ele>
        <time>2020-02-29T13:22:24 01:00</time>
      </trkpt>
      <trkpt lat="41.83516" lon="9.17252">
        <ele>1646</ele>
        <time>2020-02-29T13:22:42 01:00</time>
      </trkpt>
      <trkpt lat="41.83506" lon="9.17281">
        <ele>1650</ele>
        <time>2020-02-29T13:23:22 01:00</time>
      </trkpt>
      <trkpt lat="41.83492" lon="9.17304">
        <ele>1646</ele>
        <time>2020-02-29T13:23:44 01:00</time>
      </trkpt>
      <trkpt lat="41.83412" lon="9.17383">
        <ele>1652</ele>
        <time>2020-02-29T13:27:34 01:00</time>
      </trkpt>
      <trkpt lat="41.83416" lon="9.17353">
        <ele>1645</ele>
        <time>2020-02-29T13:28:08 01:00</time>
      </trkpt>
      <trkpt lat="41.83376" lon="9.17334">
        <ele>1648</ele>
        <time>2020-02-29T13:30:57 01:00</time>
      </trkpt>
      <trkpt lat="41.83339" lon="9.17337">
        <ele>1642</ele>
        <time>2020-02-29T13:35:34 01:00</time>
      </trkpt>
      <trkpt lat="41.83315" lon="9.1734">
        <ele>1642</ele>
        <time>2020-02-29T13:35:58 01:00</time>
      </trkpt>
      <trkpt lat="41.83292" lon="9.17346">
        <ele>1638</ele>
        <time>2020-02-29T13:36:18 01:00</time>
      </trkpt>
      <trkpt lat="41.83269" lon="9.17348">
        <ele>1639</ele>
        <time>2020-02-29T13:36:37 01:00</time>
      </trkpt>
      <trkpt lat="41.83175" lon="9.17347">
        <ele>1639</ele>
        <time>2020-02-29T13:38:58 01:00</time>
      </trkpt>
      <trkpt lat="41.83076" lon="9.17237">
        <ele>1604</ele>
        <time>2020-02-29T13:44:43 01:00</time>
      </trkpt>
      <trkpt lat="41.83055" lon="9.17226">
        <ele>1598</ele>
        <time>2020-02-29T13:45:20 01:00</time>
      </trkpt>
      <trkpt lat="41.8291" lon="9.17161">
        <ele>1586</ele>
        <time>2020-02-29T13:52:10 01:00</time>
      </trkpt>
      <trkpt lat="41.82807" lon="9.17063">
        <ele>1616</ele>
        <time>2020-02-29T13:56:34 01:00</time>
      </trkpt>
      <trkpt lat="41.82784" lon="9.17061">
        <ele>1593</ele>
        <time>2020-02-29T13:57:10 01:00</time>
      </trkpt>
      <trkpt lat="41.82468" lon="9.17088">
        <ele>1630</ele>
        <time>2020-02-29T14:04:49 01:00</time>
      </trkpt>
      <trkpt lat="41.82467" lon="9.17057">
        <ele>1590</ele>
        <time>2020-02-29T14:06:02 01:00</time>
      </trkpt>
      <trkpt lat="41.8235" lon="9.16809">
        <ele>1546</ele>
        <time>2020-02-29T14:22:15 01:00</time>
      </trkpt>
      <trkpt lat="41.82358" lon="9.16869">
        <ele>1533</ele>
        <time>2020-02-29T14:23:14 01:00</time>
      </trkpt>
      <trkpt lat="41.82349" lon="9.16897">
        <ele>1531</ele>
        <time>2020-02-29T14:23:43 01:00</time>
      </trkpt>
      <trkpt lat="41.8236" lon="9.16924">
        <ele>1530</ele>
        <time>2020-02-29T14:24:14 01:00</time>
      </trkpt>
      <trkpt lat="41.82353" lon="9.16954">
        <ele>1527</ele>
        <time>2020-02-29T14:25:07 01:00</time>
      </trkpt>
      <trkpt lat="41.82362" lon="9.16982">
        <ele>1574</ele>
        <time>2020-02-29T14:25:39 01:00</time>
      </trkpt>
      <trkpt lat="41.8234" lon="9.16991">
        <ele>1525</ele>
        <time>2020-02-29T14:26:19 01:00</time>
      </trkpt>
      <trkpt lat="41.82309" lon="9.17028">
        <ele>1511</ele>
        <time>2020-02-29T14:33:59 01:00</time>
      </trkpt>
      <trkpt lat="41.82289" lon="9.17012">
        <ele>1540</ele>
        <time>2020-02-29T14:39:59 01:00</time>
      </trkpt>
      <trkpt lat="41.82256" lon="9.17011">
        <ele>1508</ele>
        <time>2020-02-29T14:41:54 01:00</time>
      </trkpt>
      <trkpt lat="41.82243" lon="9.17035">
        <ele>1523</ele>
        <time>2020-02-29T14:44:28 01:00</time>
      </trkpt>
      <trkpt lat="41.82251" lon="9.17074">
        <ele>1533</ele>
        <time>2020-02-29T14:47:38 01:00</time>
      </trkpt>
      <trkpt lat="41.82231" lon="9.1709">
        <ele>1531</ele>
        <time>2020-02-29T14:48:24 01:00</time>
      </trkpt>
      <trkpt lat="41.82208" lon="9.17092">
        <ele>1536</ele>
        <time>2020-02-29T14:49:26 01:00</time>
      </trkpt>
      <trkpt lat="41.82093" lon="9.17083">
        <ele>1537</ele>
        <time>2020-02-29T15:00:52 01:00</time>
      </trkpt>
      <trkpt lat="41.8206" lon="9.1706">
        <ele>1526</ele>
        <time>2020-02-29T15:07:34 01:00</time>
      </trkpt>
      <trkpt lat="41.82045" lon="9.17083">
        <ele>1534</ele>
        <time>2020-02-29T15:08:25 01:00</time>
      </trkpt>
      <trkpt lat="41.82024" lon="9.1707">
        <ele>1535</ele>
        <time>2020-02-29T15:09:07 01:00</time>
      </trkpt>
      <trkpt lat="41.82005" lon="9.17093">
        <ele>1591</ele>
        <time>2020-02-29T15:12:25 01:00</time>
      </trkpt>
      <trkpt lat="41.81857" lon="9.16942">
        <ele>1519</ele>
        <time>2020-02-29T15:16:52 01:00</time>
      </trkpt>
      <trkpt lat="41.81765" lon="9.16804">
        <ele>1646</ele>
        <time>2020-02-29T15:21:43 01:00</time>
      </trkpt>
      <trkpt lat="41.81729" lon="9.16828">
        <ele>1658</ele>
        <time>2020-02-29T15:21:46 01:00</time>
      </trkpt>
      <trkpt lat="41.81705" lon="9.16838">
        <ele>1657</ele>
        <time>2020-02-29T15:21:51 01:00</time>
      </trkpt>
      <trkpt lat="41.81687" lon="9.1682">
        <ele>1647</ele>
        <time>2020-02-29T15:22:14 01:00</time>
      </trkpt>
      <trkpt lat="41.81306" lon="9.16289">
        <ele>1513</ele>
        <time>2020-02-29T15:43:51 01:00</time>
      </trkpt>
      <trkpt lat="41.81284" lon="9.16281">
        <ele>1515</ele>
        <time>2020-02-29T15:43:54 01:00</time>
      </trkpt>
      <trkpt lat="41.81281" lon="9.16311">
        <ele>1419</ele>
        <time>2020-02-29T15:45:06 01:00</time>
      </trkpt>
      <trkpt lat="41.81286" lon="9.1634">
        <ele>1418</ele>
        <time>2020-02-29T15:46:04 01:00</time>
      </trkpt>
      <trkpt lat="41.81296" lon="9.16367">
        <ele>1422</ele>
        <time>2020-02-29T15:46:55 01:00</time>
      </trkpt>
      <trkpt lat="41.81312" lon="9.1639">
        <ele>1424</ele>
        <time>2020-02-29T15:48:02 01:00</time>
      </trkpt>
      <trkpt lat="41.81326" lon="9.16414">
        <ele>1428</ele>
        <time>2020-02-29T15:48:42 01:00</time>
      </trkpt>
      <trkpt lat="41.81346" lon="9.16466">
        <ele>1616</ele>
        <time>2020-02-29T15:50:43 01:00</time>
      </trkpt>
      <trkpt lat="41.81364" lon="9.16484">
        <ele>1528</ele>
        <time>2020-02-29T15:51:58 01:00</time>
      </trkpt>
      <trkpt lat="41.81443" lon="9.16461">
        <ele>1640</ele>
        <time>2020-02-29T15:53:08 01:00</time>
      </trkpt>
      <trkpt lat="41.81444" lon="9.16495">
        <ele>1564</ele>
        <time>2020-02-29T15:53:12 01:00</time>
      </trkpt>
      <trkpt lat="41.81452" lon="9.16523">
        <ele>1567</ele>
        <time>2020-02-29T15:53:31 01:00</time>
      </trkpt>
      <trkpt lat="41.81427" lon="9.16592">
        <ele>1636</ele>
        <time>2020-02-29T15:54:54 01:00</time>
      </trkpt>
      <trkpt lat="41.81505" lon="9.16591">
        <ele>1647</ele>
        <time>2020-02-29T15:54:56 01:00</time>
      </trkpt>
      <trkpt lat="41.81517" lon="9.16617">
        <ele>1645</ele>
        <time>2020-02-29T15:55:15 01:00</time>
      </trkpt>
      <trkpt lat="41.81538" lon="9.1663">
        <ele>1639</ele>
        <time>2020-02-29T15:55:42 01:00</time>
      </trkpt>
      <trkpt lat="41.81556" lon="9.16649">
        <ele>1487</ele>
        <time>2020-02-29T15:56:24 01:00</time>
      </trkpt>
      <trkpt lat="41.81579" lon="9.16652">
        <ele>1463</ele>
        <time>2020-02-29T15:57:14 01:00</time>
      </trkpt>
      <trkpt lat="41.81595" lon="9.16607">
        <ele>1474</ele>
        <time>2020-02-29T15:58:36 01:00</time>
      </trkpt>
      <trkpt lat="41.81607" lon="9.16582">
        <ele>1475</ele>
        <time>2020-02-29T15:59:17 01:00</time>
      </trkpt>
      <trkpt lat="41.81617" lon="9.16609">
        <ele>1471</ele>
        <time>2020-02-29T16:00:11 01:00</time>
      </trkpt>
      <trkpt lat="41.81621" lon="9.16639">
        <ele>1471</ele>
        <time>2020-02-29T16:00:36 01:00</time>
      </trkpt>
      <trkpt lat="41.81641" lon="9.16655">
        <ele>1477</ele>
        <time>2020-02-29T16:01:02 01:00</time>
      </trkpt>
      <trkpt lat="41.81646" lon="9.16625">
        <ele>1515</ele>
        <time>2020-02-29T16:01:54 01:00</time>
      </trkpt>
      <trkpt lat="41.81662" lon="9.16602">
        <ele>1496</ele>
        <time>2020-02-29T16:02:22 01:00</time>
      </trkpt>
      <trkpt lat="41.8167" lon="9.16573">
        <ele>1491</ele>
        <time>2020-02-29T16:02:44 01:00</time>
      </trkpt>
      <trkpt lat="41.81678" lon="9.16544">
        <ele>1482</ele>
        <time>2020-02-29T16:03:17 01:00</time>
      </trkpt>
      <trkpt lat="41.81698" lon="9.16531">
        <ele>1480</ele>
        <time>2020-02-29T16:03:37 01:00</time>
      </trkpt>
      <trkpt lat="41.81721" lon="9.16531">
        <ele>1528</ele>
        <time>2020-02-29T16:04:08 01:00</time>
      </trkpt>
      <trkpt lat="41.81743" lon="9.1652">
        <ele>1537</ele>
        <time>2020-02-29T16:04:32 01:00</time>
      </trkpt>
      <trkpt lat="41.81822" lon="9.16305">
        <ele>1638</ele>
        <time>2020-02-29T16:06:11 01:00</time>
      </trkpt>
      <trkpt lat="41.81805" lon="9.1636">
        <ele>1643</ele>
        <time>2020-02-29T16:06:14 01:00</time>
      </trkpt>
      <trkpt lat="41.81815" lon="9.164">
        <ele>1641</ele>
        <time>2020-02-29T16:06:17 01:00</time>
      </trkpt>
      <trkpt lat="41.81812" lon="9.16439">
        <ele>1635</ele>
        <time>2020-02-29T16:06:24 01:00</time>
      </trkpt>
      <trkpt lat="41.818" lon="9.16464">
        <ele>1624</ele>
        <time>2020-02-29T16:06:34 01:00</time>
      </trkpt>
      <trkpt lat="41.81814" lon="9.16411">
        <ele>1636</ele>
        <time>2020-02-29T16:08:43 01:00</time>
      </trkpt>
      <trkpt lat="41.81837" lon="9.16403">
        <ele>1643</ele>
        <time>2020-02-29T16:08:46 01:00</time>
      </trkpt>
      <trkpt lat="41.81859" lon="9.16413">
        <ele>1449</ele>
        <time>2020-02-29T16:08:55 01:00</time>
      </trkpt>
      <trkpt lat="41.81919" lon="9.16393">
        <ele>1425</ele>
        <time>2020-02-29T16:15:36 01:00</time>
      </trkpt>
      <trkpt lat="41.81911" lon="9.16364">
        <ele>1422</ele>
        <time>2020-02-29T16:16:24 01:00</time>
      </trkpt>
      <trkpt lat="41.81906" lon="9.16314">
        <ele>1504</ele>
        <time>2020-02-29T16:18:42 01:00</time>
      </trkpt>
      <trkpt lat="41.81903" lon="9.16278">
        <ele>1568</ele>
        <time>2020-02-29T16:21:45 01:00</time>
      </trkpt>
      <trkpt lat="41.81938" lon="9.16273">
        <ele>1511</ele>
        <time>2020-02-29T16:21:48 01:00</time>
      </trkpt>
      <trkpt lat="41.8197" lon="9.16236">
        <ele>1478</ele>
        <time>2020-02-29T16:23:25 01:00</time>
      </trkpt>
      <trkpt lat="41.81977" lon="9.16265">
        <ele>1468</ele>
        <time>2020-02-29T16:24:01 01:00</time>
      </trkpt>
      <trkpt lat="41.82065" lon="9.16222">
        <ele>1556</ele>
        <time>2020-02-29T16:25:30 01:00</time>
      </trkpt>
      <trkpt lat="41.82052" lon="9.16257">
        <ele>1628</ele>
        <time>2020-02-29T16:25:32 01:00</time>
      </trkpt>
      <trkpt lat="41.82058" lon="9.16286">
        <ele>1491</ele>
        <time>2020-02-29T16:25:59 01:00</time>
      </trkpt>
      <trkpt lat="41.82141" lon="9.16291">
        <ele>1636</ele>
        <time>2020-02-29T16:27:27 01:00</time>
      </trkpt>
      <trkpt lat="41.82121" lon="9.16305">
        <ele>1529</ele>
        <time>2020-02-29T16:27:36 01:00</time>
      </trkpt>
      <trkpt lat="41.82143" lon="9.16314">
        <ele>1544</ele>
        <time>2020-02-29T16:27:56 01:00</time>
      </trkpt>
      <trkpt lat="41.82262" lon="9.16328">
        <ele>1643</ele>
        <time>2020-02-29T16:29:06 01:00</time>
      </trkpt>
      <trkpt lat="41.82241" lon="9.16346">
        <ele>1649</ele>
        <time>2020-02-29T16:29:39 01:00</time>
      </trkpt>
      <trkpt lat="41.82223" lon="9.16367">
        <ele>1647</ele>
        <time>2020-02-29T16:29:47 01:00</time>
      </trkpt>
      <trkpt lat="41.82239" lon="9.16322">
        <ele>1489</ele>
        <time>2020-02-29T16:31:22 01:00</time>
      </trkpt>
      <trkpt lat="41.82234" lon="9.16352">
        <ele>1504</ele>
        <time>2020-02-29T16:31:42 01:00</time>
      </trkpt>
      <trkpt lat="41.82156" lon="9.16208">
        <ele>1510</ele>
        <time>2020-02-29T16:39:47 01:00</time>
      </trkpt>
      <trkpt lat="41.82171" lon="9.1623">
        <ele>1534</ele>
        <time>2020-02-29T16:40:40 01:00</time>
      </trkpt>
      <trkpt lat="41.82193" lon="9.16222">
        <ele>1585</ele>
        <time>2020-02-29T16:41:10 01:00</time>
      </trkpt>
      <trkpt lat="41.82251" lon="9.1617">
        <ele>1539</ele>
        <time>2020-02-29T16:42:48 01:00</time>
      </trkpt>
      <trkpt lat="41.82261" lon="9.16142">
        <ele>1541</ele>
        <time>2020-02-29T16:43:22 01:00</time>
      </trkpt>
      <trkpt lat="41.82282" lon="9.16128">
        <ele>1550</ele>
        <time>2020-02-29T16:43:55 01:00</time>
      </trkpt>
      <trkpt lat="41.82292" lon="9.15839">
        <ele>1564</ele>
        <time>2020-02-29T16:48:24 01:00</time>
      </trkpt>
      <trkpt lat="41.82159" lon="9.15651">
        <ele>1591</ele>
        <time>2020-02-29T16:51:35 01:00</time>
      </trkpt>
      <trkpt lat="41.8214" lon="9.15634">
        <ele>1592</ele>
        <time>2020-02-29T16:52:13 01:00</time>
      </trkpt>
      <trkpt lat="41.8211" lon="9.15604">
        <ele>1561</ele>
        <time>2020-02-29T16:52:55 01:00</time>
      </trkpt>
      <trkpt lat="41.82113" lon="9.15574">
        <ele>1593</ele>
        <time>2020-02-29T16:53:24 01:00</time>
      </trkpt>
      <trkpt lat="41.82135" lon="9.15395">
        <ele>1600</ele>
        <time>2020-02-29T16:55:34 01:00</time>
      </trkpt>
      <trkpt lat="41.8214" lon="9.15365">
        <ele>1598</ele>
        <time>2020-02-29T16:56:31 01:00</time>
      </trkpt>
      <trkpt lat="41.82189" lon="9.153">
        <ele>1595</ele>
        <time>2020-02-29T16:58:15 01:00</time>
      </trkpt>
      <trkpt lat="41.82182" lon="9.1527">
        <ele>1607</ele>
        <time>2020-02-29T16:58:38 01:00</time>
      </trkpt>
      <trkpt lat="41.82178" lon="9.1524">
        <ele>1606</ele>
        <time>2020-02-29T16:58:55 01:00</time>
      </trkpt>
      <trkpt lat="41.82167" lon="9.15213">
        <ele>1611</ele>
        <time>2020-02-29T16:59:22 01:00</time>
      </trkpt>
      <trkpt lat="41.82174" lon="9.15184">
        <ele>1612</ele>
        <time>2020-02-29T16:59:43 01:00</time>
      </trkpt>
      <trkpt lat="41.82174" lon="9.15153">
        <ele>1613</ele>
        <time>2020-02-29T17:00:10 01:00</time>
      </trkpt>
      <trkpt lat="41.82183" lon="9.15096">
        <ele>1581.1</ele>
        <time>2020-02-29T17:01:02 01:00</time>
      </trkpt>
      <trkpt lat="41.82179" lon="9.15087">
        <ele>1580.8</ele>
      </trkpt>
      <trkpt lat="41.82168" lon="9.15081">
        <ele>1580.7</ele>
      </trkpt>
      <trkpt lat="41.82163" lon="9.15061">
        <ele>1584</ele>
      </trkpt>
      <trkpt lat="41.82162" lon="9.15028">
        <ele>1585.8</ele>
      </trkpt>
      <trkpt lat="41.82145" lon="9.14973">
        <ele>1587.4</ele>
      </trkpt>
      <trkpt lat="41.82141" lon="9.14927">
        <ele>1586.5</ele>
      </trkpt>
      <trkpt lat="41.8214" lon="9.14894">
        <ele>1583.7</ele>
      </trkpt>
      <trkpt lat="41.82122" lon="9.14847">
        <ele>1583.1</ele>
      </trkpt>
      <trkpt lat="41.8213" lon="9.14828">
        <ele>1578.4</ele>
      </trkpt>
      <trkpt lat="41.8214" lon="9.14778">
        <ele>1576.1</ele>
      </trkpt>
      <trkpt lat="41.82147" lon="9.14752">
        <ele>1574</ele>
      </trkpt>
      <trkpt lat="41.82166" lon="9.14741">
        <ele>1569.8</ele>
      </trkpt>
      <trkpt lat="41.8217" lon="9.14708">
        <ele>1564.4</ele>
      </trkpt>
      <trkpt lat="41.82166" lon="9.14673">
        <ele>1563.7</ele>
      </trkpt>
      <trkpt lat="41.82188" lon="9.14641">
        <ele>1557</ele>
      </trkpt>
      <trkpt lat="41.82198" lon="9.14615">
        <ele>1555.2</ele>
      </trkpt>
      <trkpt lat="41.82198" lon="9.14571">
        <ele>1549.7</ele>
      </trkpt>
      <trkpt lat="41.82217" lon="9.14572">
        <ele>1549.3</ele>
      </trkpt>
      <trkpt lat="41.8223" lon="9.14548">
        <ele>1548.4</ele>
      </trkpt>
      <trkpt lat="41.82247" lon="9.14453">
        <ele>1542.4</ele>
      </trkpt>
      <trkpt lat="41.82248" lon="9.14414">
        <ele>1539.9</ele>
      </trkpt>
      <trkpt lat="41.82263" lon="9.14372">
        <ele>1537.7</ele>
      </trkpt>
      <trkpt lat="41.82297" lon="9.14337">
        <ele>1536.4</ele>
      </trkpt>
      <trkpt lat="41.82302" lon="9.14311">
        <ele>1532.8</ele>
      </trkpt>
      <trkpt lat="41.8232" lon="9.14294">
        <ele>1532</ele>
      </trkpt>
      <trkpt lat="41.82327" lon="9.14276">
        <ele>1530.9</ele>
      </trkpt>
      <trkpt lat="41.82323" lon="9.14239">
        <ele>1528.1</ele>
      </trkpt>
      <trkpt lat="41.82325" lon="9.14158">
        <ele>1528.4</ele>
        <time>2020-02-29T10:07:38 01:00</time>
      </trkpt>
    </trkseg>
  </trk>
</gpx>